Time;durP1;ratioP1;P1;durP2;ratioP2;P2;SDS_P1;SDS_P2;PMS_P1;PMS_P2;Temp;Humidity;BMP_temperature;BMP_pressure;BME280_temperature;BME280_humidity;BME280_pressure;Samples;Min_cycle;Max_cycle;Signal;HPM_P1;HPM_P2
2021/07/30 00:01:50;;;;;;;;;;;;;;;15.25;100.00;98093.38;5093996;28;19932;-77
2021/07/30 00:04:17;;;;;;;;;;;;;;;15.03;100.00;98090.09;5093649;28;20030;-77
2021/07/30 00:06:44;;;;;;;;;;;;;;;14.97;100.00;98094.81;5093996;28;19947;-77
2021/07/30 00:09:14;;;;;;;;;;;;;;;15.33;100.00;98085.38;5075473;28;19935;-77
2021/07/30 00:11:41;;;;;;;;;;;;;;;15.65;100.00;98087.38;5093775;28;19928;-78
2021/07/30 00:14:10;;;;;;;;;;;;;;;15.82;100.00;98080.84;5075367;28;19959;-77
2021/07/30 00:16:39;;;;;;;;;;;;;;;15.81;100.00;98076.44;5075882;28;19959;-77
2021/07/30 00:19:06;;;;;;;;;;;;;;;15.90;100.00;98082.00;5075482;28;20283;-77
2021/07/30 00:21:33;;;;;;;;;;;;;;;15.94;100.00;98082.63;5075514;28;19946;-77
2021/07/30 00:24:00;;;;;;;;;;;;;;;15.90;100.00;98072.78;5093251;28;20000;-77
2021/07/30 00:26:27;;;;;;;;;;;;;;;15.89;100.00;98063.56;5075882;28;20283;-77
2021/07/30 00:28:59;;;;;;;;;;;;;;;15.68;100.00;98070.31;5075231;28;19928;-77
2021/07/30 00:31:26;;;;;;;;;;;;;;;15.67;100.00;98077.22;5109226;28;19931;-77
2021/07/30 00:33:59;;;;;;;;;;;;;;;15.51;100.00;98065.59;5093516;28;19924;-77
2021/07/30 00:36:27;;;;;;;;;;;;;;;15.52;100.00;98069.97;5093357;28;19928;-77
2021/07/30 00:38:54;;;;;;;;;;;;;;;15.41;100.00;98073.31;5075520;28;19951;-78
2021/07/30 00:41:21;;;;;;;;;;;;;;;15.11;100.00;98076.44;5075501;28;20477;-77
2021/07/30 00:43:48;;;;;;;;;;;;;;;15.05;100.00;98067.91;5075066;28;19931;-77
2021/07/30 00:46:15;;;;;;;;;;;;;;;15.34;100.00;98065.19;5093414;28;19947;-77
2021/07/30 00:48:43;;;;;;;;;;;;;;;15.60;100.00;98057.09;5075422;28;19924;-77
2021/07/30 00:51:10;;;;;;;;;;;;;;;15.78;100.00;98045.66;5093182;28;19927;-78
2021/07/30 00:53:37;;;;;;;;;;;;;;;15.89;100.00;98055.09;5075638;28;19927;-77
2021/07/30 00:56:05;;;;;;;;;;;;;;;15.95;100.00;98053.16;5075373;28;19935;-77
2021/07/30 00:58:32;;;;;;;;;;;;;;;16.04;100.00;98041.03;5074917;28;20294;-77
2021/07/30 01:01:00;;;;;;;;;;;;;;;16.02;100.00;98040.75;5096293;28;19924;-77
2021/07/30 01:03:28;;;;;;;;;;;;;;;16.02;100.00;98044.34;5079341;28;19931;-77
2021/07/30 01:05:56;;;;;;;;;;;;;;;15.80;100.00;98041.09;5097183;28;20306;-77
2021/07/30 01:08:23;;;;;;;;;;;;;;;15.87;100.00;98037.91;5097280;28;19924;-77
2021/07/30 01:10:50;;;;;;;;;;;;;;;15.81;100.00;98039.06;5096840;28;19979;-77
2021/07/30 01:13:17;;;;;;;;;;;;;;;15.51;100.00;98032.59;5096967;28;19935;-77
2021/07/30 01:15:50;;;;;;;;;;;;;;;15.14;100.00;98041.72;5096950;28;19931;-77
2021/07/30 01:18:17;;;;;;;;;;;;;;;15.51;100.00;98045.91;5095616;28;19924;-77
2021/07/30 01:20:44;;;;;;;;;;;;;;;15.69;100.00;98032.44;5097000;28;19925;-77
2021/07/30 01:23:13;;;;;;;;;;;;;;;15.79;100.00;98031.09;5078326;28;19923;-77
2021/07/30 01:25:49;;;;;;;;;;;;;;;15.90;100.00;98025.66;5096774;28;19924;-77
2021/07/30 01:28:16;;;;;;;;;;;;;;;15.91;100.00;98032.88;5096643;28;20252;-77
2021/07/30 01:30:43;;;;;;;;;;;;;;;15.74;100.00;98031.78;5062113;28;20260;-77
2021/07/30 01:33:10;;;;;;;;;;;;;;;15.83;100.00;98031.69;5078634;28;20364;-78
2021/07/30 01:35:37;;;;;;;;;;;;;;;15.94;100.00;98019.84;5078740;28;19924;-77
2021/07/30 01:38:04;;;;;;;;;;;;;;;15.95;100.00;98016.56;5096437;28;19939;-77
2021/07/30 01:40:31;;;;;;;;;;;;;;;15.89;100.00;98015.66;5112097;28;20248;-77
2021/07/30 01:42:58;;;;;;;;;;;;;;;15.89;100.00;98010.03;5078320;28;19973;-77
2021/07/30 01:45:25;;;;;;;;;;;;;;;15.90;100.00;98003.13;5096713;28;20282;-77
2021/07/30 01:47:52;;;;;;;;;;;;;;;15.35;100.00;98006.88;5095149;28;20317;-77
2021/07/30 01:50:19;;;;;;;;;;;;;;;14.80;100.00;98005.69;5078282;28;19924;-77
2021/07/30 01:52:47;;;;;;;;;;;;;;;14.74;100.00;98019.59;5078599;28;19924;-77
2021/07/30 01:55:14;;;;;;;;;;;;;;;14.94;100.00;98017.00;5095966;28;19931;-77
2021/07/30 01:57:41;;;;;;;;;;;;;;;15.28;100.00;98016.47;5078150;28;20386;-77
2021/07/30 02:00:08;;;;;;;;;;;;;;;15.55;100.00;98016.31;5096238;28;20073;-77
2021/07/30 02:02:40;;;;;;;;;;;;;;;15.70;100.00;98014.28;5078296;28;20405;-77
2021/07/30 02:05:08;;;;;;;;;;;;;;;15.81;100.00;98013.72;5096543;28;19925;-77
2021/07/30 02:07:36;;;;;;;;;;;;;;;15.85;100.00;98009.47;5078065;28;20427;-77
2021/07/30 02:10:05;;;;;;;;;;;;;;;15.86;100.00;97996.94;5077904;28;19932;-78
2021/07/30 02:14:14;;;;;;;;;;;;;;;15.87;100.00;97992.84;5095208;28;20341;-77
2021/07/30 02:15:20;;;;;;;;;;;;;;;14.93;100.00;97997.78;5094842;28;19924;-77
2021/07/30 02:17:47;;;;;;;;;;;;;;;14.54;100.00;97996.91;5061016;28;19924;-76
2021/07/30 02:20:14;;;;;;;;;;;;;;;14.61;100.00;97998.59;5111661;28;20424;-77
2021/07/30 02:22:41;;;;;;;;;;;;;;;14.79;100.00;97992.88;5077465;28;20383;-77
2021/07/30 02:25:09;;;;;;;;;;;;;;;15.13;100.00;98001.56;5095467;28;20367;-77
2021/07/30 02:27:37;;;;;;;;;;;;;;;15.52;100.00;97996.78;5095506;28;19924;-77
2021/07/30 02:30:04;;;;;;;;;;;;;;;15.68;100.00;97991.47;5095542;28;19924;-77
2021/07/30 02:32:31;;;;;;;;;;;;;;;15.75;100.00;97982.63;5077825;28;20395;-77
2021/07/30 02:34:58;;;;;;;;;;;;;;;15.82;100.00;97968.19;5095423;28;19931;-77
2021/07/30 02:37:25;;;;;;;;;;;;;;;15.92;100.00;97966.81;5095510;28;19960;-77
2021/07/30 02:39:52;;;;;;;;;;;;;;;16.03;100.00;97960.59;5094992;28;19928;-77
2021/07/30 02:42:19;;;;;;;;;;;;;;;16.00;100.00;97953.13;5095558;28;19924;-77
2021/07/30 02:44:46;;;;;;;;;;;;;;;15.49;100.00;97947.84;5095237;28;20394;-77
2021/07/30 02:47:13;;;;;;;;;;;;;;;15.58;100.00;97953.41;5110983;28;19924;-77
2021/07/30 02:49:40;;;;;;;;;;;;;;;15.51;100.00;97941.75;5095351;28;19924;-77
2021/07/30 02:52:07;;;;;;;;;;;;;;;15.78;100.00;97938.66;5093956;28;20337;-77
2021/07/30 02:54:35;;;;;;;;;;;;;;;15.78;100.00;97916.88;5095160;28;19932;-77
2021/07/30 02:57:02;;;;;;;;;;;;;;;15.62;100.00;97925.81;5095004;28;19974;-77
2021/07/30 02:59:29;;;;;;;;;;;;;;;15.37;100.00;97917.91;5095221;28;20363;-77
2021/07/30 03:01:56;;;;;;;;;;;;;;;14.94;100.00;97923.41;5095109;28;19932;-77
2021/07/30 03:04:24;;;;;;;;;;;;;;;15.00;100.00;97936.34;5096156;28;19970;-77
2021/07/30 03:06:51;;;;;;;;;;;;;;;15.45;100.00;97926.78;5093470;28;19956;-77
2021/07/30 03:09:18;;;;;;;;;;;;;;;15.63;100.00;97916.09;5094871;28;19924;-77
2021/07/30 03:11:45;;;;;;;;;;;;;;;15.67;100.00;97916.72;5093793;28;19924;-77
2021/07/30 03:14:11;;;;;;;;;;;;;;;15.78;100.00;97916.88;5110478;28;19924;-78
2021/07/30 03:16:39;;;;;;;;;;;;;;;15.86;100.00;97911.63;5094777;28;19924;-78
2021/07/30 03:19:06;;;;;;;;;;;;;;;15.91;100.00;97897.66;5094650;28;20009;-78
2021/07/30 03:21:33;;;;;;;;;;;;;;;15.85;100.00;97896.81;5094522;28;19969;-77
2021/07/30 03:24:00;;;;;;;;;;;;;;;15.76;100.00;97896.91;5093781;28;19931;-77
2021/07/30 03:26:29;;;;;;;;;;;;;;;15.87;100.00;97890.69;5060482;28;19927;-78
2021/07/30 03:28:56;;;;;;;;;;;;;;;15.82;100.00;97892.13;5094818;28;19924;-77
2021/07/30 03:31:23;;;;;;;;;;;;;;;15.98;100.00;97891.63;5076243;28;20371;-77
2021/07/30 03:33:51;;;;;;;;;;;;;;;15.94;100.00;97893.09;5094664;28;20026;-77
2021/07/30 03:36:18;;;;;;;;;;;;;;;16.00;100.00;97880.66;5076327;28;19924;-77
2021/07/30 03:38:45;;;;;;;;;;;;;;;15.73;100.00;97880.19;5076631;28;20612;-78
2021/07/30 03:41:12;;;;;;;;;;;;;;;15.82;100.00;97880.09;5094450;28;19931;-77
2021/07/30 03:43:39;;;;;;;;;;;;;;;15.81;100.00;97870.09;5076496;28;19931;-78
2021/07/30 03:46:06;;;;;;;;;;;;;;;15.79;100.00;97858.53;5094332;28;19959;-78
2021/07/30 03:48:33;;;;;;;;;;;;;;;15.68;100.00;97853.50;5089076;28;19925;-77
2021/07/30 03:51:00;;;;;;;;;;;;;;;15.37;100.00;97844.75;5090748;28;20377;-78
2021/07/30 03:53:27;;;;;;;;;;;;;;;15.40;100.00;97841.00;5093802;28;19925;-77
2021/07/30 03:55:54;;;;;;;;;;;;;;;15.59;100.00;97847.97;5109915;28;19924;-77
2021/07/30 03:58:21;;;;;;;;;;;;;;;15.51;100.00;97831.97;5092696;28;19923;-77
2021/07/30 04:00:48;;;;;;;;;;;;;;;15.25;100.00;97845.78;5075890;28;19946;-78
2021/07/30 04:03:15;;;;;;;;;;;;;;;15.17;100.00;97853.06;5076062;28;20371;-77
2021/07/30 04:05:42;;;;;;;;;;;;;;;15.17;100.00;97835.41;5091935;28;19928;-77
2021/07/30 04:08:09;;;;;;;;;;;;;;;15.17;100.00;97838.22;5094023;28;19924;-77
2021/07/30 04:10:36;;;;;;;;;;;;;;;15.01;100.00;97836.63;5109551;28;20019;-77
2021/07/30 04:13:04;;;;;;;;;;;;;;;15.21;100.00;97838.78;5075862;28;19928;-77
2021/07/30 04:15:31;;;;;;;;;;;;;;;15.18;100.00;97832.09;5094088;28;19927;-77
2021/07/30 04:17:58;;;;;;;;;;;;;;;15.38;100.00;97832.25;5093956;28;19947;-77
2021/07/30 04:20:25;;;;;;;;;;;;;;;15.40;100.00;97818.47;5093755;28;19924;-78
2021/07/30 04:22:52;;;;;;;;;;;;;;;15.43;100.00;97820.31;5093487;28;19928;-78
2021/07/30 04:25:19;;;;;;;;;;;;;;;15.59;100.00;97821.84;5093831;28;19924;-78
2021/07/30 04:27:46;;;;;;;;;;;;;;;15.56;100.00;97812.34;5093598;28;20275;-78
2021/07/30 04:30:13;;;;;;;;;;;;;;;15.35;100.00;97816.31;5108788;28;19924;-78
2021/07/30 04:32:40;;;;;;;;;;;;;;;15.20;100.00;97815.53;5093778;28;19924;-78
2021/07/30 04:35:07;;;;;;;;;;;;;;;15.29;100.00;97806.19;5092968;28;19924;-77
2021/07/30 04:37:34;;;;;;;;;;;;;;;15.26;100.00;97810.78;5075602;28;20302;-79
2021/07/30 04:40:01;;;;;;;;;;;;;;;15.38;100.00;97818.19;5093400;28;19965;-77
2021/07/30 04:42:28;;;;;;;;;;;;;;;15.39;100.00;97811.28;5109510;28;19924;-79
2021/07/30 04:44:56;;;;;;;;;;;;;;;15.31;100.00;97815.69;5093934;28;20066;-78
2021/07/30 04:47:23;;;;;;;;;;;;;;;15.17;100.00;97813.69;5091712;28;19954;-79
2021/07/30 04:49:50;;;;;;;;;;;;;;;14.86;100.00;97807.69;5079233;28;19932;-78
2021/07/30 04:52:17;;;;;;;;;;;;;;;15.21;100.00;97808.63;5082961;28;20355;-79
2021/07/30 04:54:44;;;;;;;;;;;;;;;15.22;100.00;97804.53;5078359;28;19932;-78
2021/07/30 04:57:11;;;;;;;;;;;;;;;15.14;100.00;97809.03;5033392;28;19928;-79
2021/07/30 04:59:38;;;;;;;;;;;;;;;15.36;100.00;97795.34;5093427;28;19931;-79
2021/07/30 05:02:09;;;;;;;;;;;;;;;15.56;100.00;97787.00;5093081;28;20021;-79
2021/07/30 05:04:36;;;;;;;;;;;;;;;15.68;100.00;97785.13;5092898;28;20282;-79
2021/07/30 05:07:04;;;;;;;;;;;;;;;15.57;100.00;97788.53;5108831;28;20018;-79
2021/07/30 05:09:32;;;;;;;;;;;;;;;15.34;100.00;97785.81;5065455;28;19924;-79
2021/07/30 05:11:59;;;;;;;;;;;;;;;15.61;100.00;97783.50;5093101;28;19931;-79
2021/07/30 05:14:26;;;;;;;;;;;;;;;15.69;100.00;97767.75;5093160;28;20011;-79
2021/07/30 05:16:53;;;;;;;;;;;;;;;15.70;100.00;97763.69;5093389;28;19977;-79
2021/07/30 05:19:20;;;;;;;;;;;;;;;15.66;100.00;97759.53;5074804;28;19925;-79
2021/07/30 05:21:48;;;;;;;;;;;;;;;15.50;100.00;97769.25;5092996;28;20382;-78
2021/07/30 05:24:15;;;;;;;;;;;;;;;15.54;100.00;97769.06;5093094;28;19924;-79
2021/07/30 05:26:42;;;;;;;;;;;;;;;15.47;100.00;97767.41;5093177;28;19929;-78
2021/07/30 05:29:09;;;;;;;;;;;;;;;15.77;100.00;97763.28;5108833;28;20374;-79
2021/07/30 05:31:36;;;;;;;;;;;;;;;15.58;100.00;97761.97;5085753;28;19925;-79
2021/07/30 05:34:03;;;;;;;;;;;;;;;15.59;100.00;97757.88;5067039;28;19932;-79
2021/07/30 05:36:30;;;;;;;;;;;;;;;15.59;100.00;97749.44;5093022;28;19924;-79
2021/07/30 05:38:57;;;;;;;;;;;;;;;15.59;100.00;97751.47;5108940;28;19924;-79
2021/07/30 05:41:24;;;;;;;;;;;;;;;15.44;100.00;97740.25;5055848;28;19925;-79
2021/07/30 05:43:51;;;;;;;;;;;;;;;15.25;100.00;97749.34;5057456;28;20269;-79
2021/07/30 05:46:21;;;;;;;;;;;;;;;15.28;100.00;97749.13;5050406;28;19925;-78
2021/07/30 05:48:49;;;;;;;;;;;;;;;15.36;100.00;97739.03;5079105;28;19925;-78
2021/07/30 05:51:16;;;;;;;;;;;;;;;15.51;100.00;97745.47;5070996;28;19935;-79
2021/07/30 05:53:43;;;;;;;;;;;;;;;15.25;100.00;97744.47;5075502;28;20287;-79
2021/07/30 05:56:10;;;;;;;;;;;;;;;15.41;100.00;97741.22;5077228;28;19924;-79
2021/07/30 05:58:37;;;;;;;;;;;;;;;15.62;100.00;97742.81;5092810;28;20387;-79
2021/07/30 06:01:04;;;;;;;;;;;;;;;15.57;100.00;97743.50;5078318;28;19924;-79
2021/07/30 06:03:31;;;;;;;;;;;;;;;15.71;100.00;97744.72;5111632;28;19930;-79
2021/07/30 06:06:01;;;;;;;;;;;;;;;15.73;100.00;97737.38;5096088;28;19935;-79
2021/07/30 06:08:28;;;;;;;;;;;;;;;15.85;100.00;97733.44;5078012;28;19997;-79
2021/07/30 06:11:03;;;;;;;;;;;;;;;16.08;100.00;97729.66;5077217;28;19932;-79
2021/07/30 06:13:30;;;;;;;;;;;;;;;15.89;100.00;97719.94;5069175;28;19932;-79
2021/07/30 06:15:57;;;;;;;;;;;;;;;15.99;100.00;97723.41;5077675;28;19948;-79
2021/07/30 06:18:24;;;;;;;;;;;;;;;16.04;100.00;97715.00;5077969;28;19928;-79
2021/07/30 06:20:51;;;;;;;;;;;;;;;16.05;100.00;97716.53;5111516;28;19930;-79
2021/07/30 06:23:18;;;;;;;;;;;;;;;16.17;100.00;97709.81;5095658;28;19924;-79
2021/07/30 06:25:45;;;;;;;;;;;;;;;15.80;100.00;97705.97;5095844;28;19925;-79
2021/07/30 06:28:12;;;;;;;;;;;;;;;15.51;100.00;97706.06;5095778;28;19931;-79
2021/07/30 06:30:39;;;;;;;;;;;;;;;15.69;100.00;97708.63;5095268;28;20020;-79
2021/07/30 06:33:10;;;;;;;;;;;;;;;15.78;100.00;97691.59;5095964;28;19924;-79
2021/07/30 06:35:37;;;;;;;;;;;;;;;15.96;100.00;97696.97;5095811;28;19931;-79
2021/07/30 06:38:04;;;;;;;;;;;;;;;16.01;100.00;97687.81;5077547;28;19924;-79
2021/07/30 06:40:31;;;;;;;;;;;;;;;16.12;100.00;97692.81;5086150;28;20302;-79
2021/07/30 06:42:58;;;;;;;;;;;;;;;16.13;100.00;97681.06;5090874;28;20390;-79
2021/07/30 06:45:25;;;;;;;;;;;;;;;16.06;100.00;97686.34;5069322;28;19944;-79
2021/07/30 06:47:53;;;;;;;;;;;;;;;16.28;100.00;97681.00;5075210;28;19928;-78
2021/07/30 06:50:20;;;;;;;;;;;;;;;16.02;100.00;97683.72;5067114;28;19924;-79
2021/07/30 06:52:47;;;;;;;;;;;;;;;16.16;100.00;97677.25;5077086;28;19924;-79
2021/07/30 06:55:14;;;;;;;;;;;;;;;16.20;100.00;97672.19;5110824;28;20294;-79
2021/07/30 06:57:40;;;;;;;;;;;;;;;16.09;100.00;97671.28;5094881;28;19924;-79
2021/07/30 07:00:08;;;;;;;;;;;;;;;16.26;100.00;97672.25;5093560;28;19924;-78
2021/07/30 07:02:36;;;;;;;;;;;;;;;16.50;100.00;97660.75;5094877;28;20327;-76
2021/07/30 07:05:04;;;;;;;;;;;;;;;16.76;100.00;97664.34;5079699;28;19928;-79
2021/07/30 07:07:31;;;;;;;;;;;;;;;16.98;100.00;97661.75;5063672;28;19925;-78
2021/07/30 07:09:59;;;;;;;;;;;;;;;17.01;100.00;97643.84;5039753;28;20016;-80
2021/07/30 07:12:26;;;;;;;;;;;;;;;16.92;100.00;97660.94;5067772;28;20074;-80
2021/07/30 07:14:53;;;;;;;;;;;;;;;17.03;100.00;97649.72;5054398;28;20025;-81
2021/07/30 07:17:20;;;;;;;;;;;;;;;17.34;100.00;97644.84;5072506;28;19956;-81
2021/07/30 07:19:48;;;;;;;;;;;;;;;16.32;100.00;97644.91;5054217;28;19929;-81
2021/07/30 07:22:15;;;;;;;;;;;;;;;16.02;100.00;97660.44;5050253;28;19925;-81
2021/07/30 07:24:42;;;;;;;;;;;;;;;15.79;100.00;97650.94;5054517;28;19924;-81
2021/07/30 07:27:09;;;;;;;;;;;;;;;15.64;100.00;97650.22;5053428;28;20326;-79
2021/07/30 07:29:36;;;;;;;;;;;;;;;15.35;100.00;97655.09;5102513;28;19931;-79
2021/07/30 07:32:04;;;;;;;;;;;;;;;15.66;100.00;97661.75;5084114;28;19932;-80
2021/07/30 07:34:31;;;;;;;;;;;;;;;15.82;100.00;97655.56;5086242;28;19990;-79
2021/07/30 07:36:58;;;;;;;;;;;;;;;15.81;100.00;97651.19;5063238;28;19935;-78
2021/07/30 07:39:25;;;;;;;;;;;;;;;15.81;100.00;97651.19;5083953;28;20058;-79
2021/07/30 07:41:53;;;;;;;;;;;;;;;15.70;100.00;97651.06;5092433;28;19924;-79
2021/07/30 07:44:20;;;;;;;;;;;;;;;15.55;100.00;97655.19;5058676;28;19924;-78
2021/07/30 07:46:47;;;;;;;;;;;;;;;15.89;100.00;97651.53;5083355;28;19999;-80
2021/07/30 07:49:14;;;;;;;;;;;;;;;15.83;100.00;97654.31;5059546;28;19930;-79
2021/07/30 07:51:41;;;;;;;;;;;;;;;15.90;100.00;97653.88;5094532;28;19968;-80
2021/07/30 07:54:08;;;;;;;;;;;;;;;15.70;100.00;97645.44;5094085;28;19924;-80
2021/07/30 07:56:36;;;;;;;;;;;;;;;15.93;100.00;97652.13;5056415;28;20372;-80
2021/07/30 07:59:03;;;;;;;;;;;;;;;15.85;100.00;97646.16;5074032;28;20282;-80
2021/07/30 08:01:30;;;;;;;;;;;;;;;15.92;100.00;97642.09;5084463;28;19925;-84
2021/07/30 08:03:57;;;;;;;;;;;;;;;16.07;100.00;97640.78;5053340;28;19931;-89
2021/07/30 08:06:24;;;;;;;;;;;;;;;16.23;100.00;97634.56;5034232;28;19931;-79
2021/07/30 08:08:51;;;;;;;;;;;;;;;16.25;100.00;97626.38;5050910;28;19932;-80
2021/07/30 08:11:18;;;;;;;;;;;;;;;16.04;100.00;97630.50;5066037;28;20069;-80
2021/07/30 08:13:45;;;;;;;;;;;;;;;16.11;100.00;97623.66;5069975;28;20912;-79
2021/07/30 08:16:12;;;;;;;;;;;;;;;16.04;100.00;97630.50;5071936;28;20019;-80
2021/07/30 08:18:40;;;;;;;;;;;;;;;16.24;100.00;97622.03;5052674;28;19967;-81
2021/07/30 08:21:07;;;;;;;;;;;;;;;15.91;100.00;97627.28;5035676;28;19924;-79
2021/07/30 08:23:36;;;;;;;;;;;;;;;15.93;100.00;97626.78;5029964;28;19932;-81
2021/07/30 08:26:03;;;;;;;;;;;;;;;15.99;100.00;97627.63;5029032;28;19926;-80
2021/07/30 08:28:31;;;;;;;;;;;;;;;16.18;100.00;97623.22;5029319;28;19933;-81
2021/07/30 08:30:58;;;;;;;;;;;;;;;16.17;100.00;97628.09;5032073;28;19983;-79
2021/07/30 08:33:25;;;;;;;;;;;;;;;15.75;100.00;97627.06;5030680;28;20453;-81
2021/07/30 08:35:52;;;;;;;;;;;;;;;15.95;100.00;97632.69;5013013;28;19986;-82
2021/07/30 08:38:19;;;;;;;;;;;;;;;16.05;100.00;97632.03;5029994;28;20011;-85
2021/07/30 08:40:46;;;;;;;;;;;;;;;16.23;100.00;97623.31;5029403;28;19925;-84
2021/07/30 08:43:15;;;;;;;;;;;;;;;16.36;100.00;97630.59;5029146;28;19941;-83
2021/07/30 08:45:48;;;;;;;;;;;;;;;16.28;100.00;97627.44;5011521;28;20308;-81
2021/07/30 08:48:15;;;;;;;;;;;;;;;15.99;100.00;97625.56;5041722;28;20490;-81
2021/07/30 08:50:42;;;;;;;;;;;;;;;15.97;100.00;97630.16;5040202;28;19932;-79
2021/07/30 08:53:20;;;;;;;;;;;;;;;15.83;100.00;97631.78;5035886;28;19925;-82
2021/07/30 08:55:47;;;;;;;;;;;;;;;15.96;100.00;97623.72;5013190;28;20376;-83
2021/07/30 08:58:15;;;;;;;;;;;;;;;16.11;100.00;97627.22;5044683;28;19924;-84
2021/07/30 09:00:47;;;;;;;;;;;;;;;16.36;100.00;97616.50;4984990;28;20525;-85
2021/07/30 09:03:18;;;;;;;;;;;;;;;16.42;100.00;97609.66;5031040;28;19952;-84
2021/07/30 09:05:48;;;;;;;;;;;;;;;16.52;100.00;97613.13;5030135;28;19925;-81
2021/07/30 09:08:22;;;;;;;;;;;;;;;16.66;100.00;97612.22;5029695;28;19929;-85
2021/07/30 09:10:49;;;;;;;;;;;;;;;16.56;100.00;97614.44;5029762;28;20379;-84
2021/07/30 09:13:22;;;;;;;;;;;;;;;16.63;100.00;97618.88;5027716;28;20003;-83
2021/07/30 09:16:09;;;;;;;;;;;;;;;16.70;100.00;97618.41;5031237;28;19975;-84
2021/07/30 09:18:39;;;;;;;;;;;;;;;16.67;100.00;97610.94;5021045;28;19980;-84
2021/07/30 09:21:45;;;;;;;;;;;;;;;16.33;100.00;97606.22;5013110;28;19925;-84
2021/07/30 09:24:15;;;;;;;;;;;;;;;16.48;100.00;97606.94;5007477;28;20288;-88
2021/07/30 09:26:54;;;;;;;;;;;;;;;16.68;100.00;97604.81;4998596;28;19945;-93
2021/07/30 09:29:28;;;;;;;;;;;;;;;16.60;100.00;97598.06;4999037;28;19932;-87
2021/07/30 09:31:57;;;;;;;;;;;;;;;16.55;100.00;97595.19;4993970;28;20438;-91
2021/07/30 09:34:25;;;;;;;;;;;;;;;16.70;100.00;97599.44;4981507;28;19929;-90
2021/07/30 09:36:52;;;;;;;;;;;;;;;17.07;100.00;97591.78;4994066;28;19965;-93
2021/07/30 09:39:40;;;;;;;;;;;;;;;17.20;100.00;97597.81;4995307;28;19968;-86
2021/07/30 09:42:11;;;;;;;;;;;;;;;16.97;100.00;97587.63;4984034;28;20396;-83
2021/07/30 09:44:44;;;;;;;;;;;;;;;16.91;100.00;97583.97;4995512;28;19951;-84
2021/07/30 09:47:19;;;;;;;;;;;;;;;17.21;100.00;97585.22;4996012;28;20044;-87
2021/07/30 09:49:46;;;;;;;;;;;;;;;17.14;100.00;97590.56;4996100;28;20004;-84
2021/07/30 09:52:25;;;;;;;;;;;;;;;16.96;100.00;97585.31;4978830;28;19929;-86
2021/07/30 09:54:56;;;;;;;;;;;;;;;16.56;100.00;97591.88;5007203;28;19925;-86
2021/07/30 09:57:27;;;;;;;;;;;;;;;16.86;100.00;97590.34;5032887;28;19929;-85
2021/07/30 10:00:03;;;;;;;;;;;;;;;17.11;100.00;97591.56;5020523;28;20019;-85
2021/07/30 10:02:37;;;;;;;;;;;;;;;17.72;100.00;97581.44;5038684;28;19924;-86
2021/07/30 10:05:06;;;;;;;;;;;;;;;18.02;100.00;97586.19;5038619;28;20303;-85
2021/07/30 10:07:34;;;;;;;;;;;;;;;18.20;100.00;97579.31;5038180;28;19932;-84
2021/07/30 10:12:31;;;;;;;;;;;;;;;17.71;100.00;97582.72;5054810;28;19947;-85
2021/07/30 10:15:03;;;;;;;;;;;;;;;17.95;100.00;97586.69;5038308;28;20011;-85
2021/07/30 10:17:31;;;;;;;;;;;;;;;17.78;100.00;97577.34;5022005;28;20364;-87
2021/07/30 10:20:06;;;;;;;;;;;;;;;17.55;100.00;97580.59;5036034;28;20020;-80
2021/07/30 10:22:36;;;;;;;;;;;;;;;17.64;100.00;97581.16;5062523;28;20513;-83
2021/07/30 10:25:03;;;;;;;;;;;;;;;17.66;100.00;97580.66;5063988;28;19973;-86
2021/07/30 10:27:31;;;;;;;;;;;;;;;17.53;100.00;97577.50;5078857;28;19924;-86
2021/07/30 10:30:01;;;;;;;;;;;;;;;17.90;100.00;97575.38;5079407;28;19924;-84
2021/07/30 10:32:56;;;;;;;;;;;;;;;17.90;100.00;97583.84;5028666;28;19925;-86
2021/07/30 10:35:27;;;;;;;;;;;;;;;18.06;100.00;97574.63;5034439;28;20295;-84
2021/07/30 10:38:14;;;;;;;;;;;;;;;18.08;100.00;97565.66;5043408;28;19940;-85
2021/07/30 10:40:42;;;;;;;;;;;;;;;18.07;100.00;97567.69;5055483;28;19929;-84
2021/07/30 10:43:11;;;;;;;;;;;;;;;18.57;100.00;97562.19;5055955;28;19931;-87
2021/07/30 10:45:39;;;;;;;;;;;;;;;18.95;100.00;97559.34;5035635;28;19925;-88
2021/07/30 10:48:28;;;;;;;;;;;;;;;19.09;100.00;97540.56;5056926;28;20022;-87
2021/07/30 10:51:00;;;;;;;;;;;;;;;19.39;100.00;97539.50;5038537;28;19978;-87
2021/07/30 10:53:31;;;;;;;;;;;;;;;19.81;100.00;97527.00;5075318;28;19973;-88
2021/07/30 10:56:03;;;;;;;;;;;;;;;20.23;100.00;97537.09;5092901;28;19929;-87
2021/07/30 10:58:58;;;;;;;;;;;;;;;19.49;100.00;97528.66;5042352;28;19925;-88
2021/07/30 11:01:29;;;;;;;;;;;;;;;19.79;100.00;97526.75;5029759;28;20586;-88
2021/07/30 11:03:58;;;;;;;;;;;;;;;19.67;100.00;97528.84;5054327;28;20448;-89
2021/07/30 11:06:25;;;;;;;;;;;;;;;19.15;100.00;97527.94;5006902;28;19929;-89
2021/07/30 11:08:59;;;;;;;;;;;;;;;19.15;100.00;97527.94;5034917;28;19935;-88
2021/07/30 11:11:49;;;;;;;;;;;;;;;19.06;100.00;97522.56;5060055;28;20418;-88
2021/07/30 11:14:18;;;;;;;;;;;;;;;18.96;100.00;97521.25;5025265;28;19924;-86
2021/07/30 11:16:47;;;;;;;;;;;;;;;18.89;100.00;97527.47;5066897;28;20468;-89
2021/07/30 11:19:18;;;;;;;;;;;;;;;18.87;100.00;97530.03;5040646;28;19924;-89
2021/07/30 11:21:48;;;;;;;;;;;;;;;18.66;100.00;97530.81;5040121;28;19928;-88
2021/07/30 11:24:15;;;;;;;;;;;;;;;18.87;100.00;97535.69;5075017;28;19928;-86
2021/07/30 11:26:43;;;;;;;;;;;;;;;19.29;100.00;97532.59;5040392;28;19930;-87
2021/07/30 11:29:24;;;;;;;;;;;;;;;19.31;100.00;97540.56;5073064;28;20268;-87
2021/07/30 11:32:21;;;;;;;;;;;;;;;19.33;100.00;97538.75;5057322;28;20286;-86
2021/07/30 11:35:08;;;;;;;;;;;;;;;19.58;100.00;97540.47;5023657;28;20015;-90
2021/07/30 11:37:42;;;;;;;;;;;;;;;19.55;100.00;97544.34;5034216;28;19955;-88
2021/07/30 11:40:22;;;;;;;;;;;;;;;19.79;100.00;97534.47;5050173;28;19925;-91
2021/07/30 11:43:50;;;;;;;;;;;;;;;19.52;100.00;97536.88;5050159;28;19931;-90
2021/07/30 11:47:24;;;;;;;;;;;;;;;20.03;100.00;97532.53;5029650;28;19925;-93
2021/07/30 11:50:30;;;;;;;;;;;;;;;20.01;100.00;97540.03;5007562;28;20031;-94
2021/07/30 11:53:22;;;;;;;;;;;;;;;19.46;100.00;97535.38;5025789;28;19925;-95
2021/07/30 11:56:02;;;;;;;;;;;;;;;19.19;100.00;97536.94;5009282;28;19924;-93
2021/07/30 11:58:59;;;;;;;;;;;;;;;19.08;100.00;97536.19;5044145;28;19959;-93
2021/07/30 12:01:40;;;;;;;;;;;;;;;18.88;100.00;97542.91;5062212;28;20318;-79
2021/07/30 12:04:08;;;;;;;;;;;;;;;18.93;100.00;97544.94;5069391;28;20023;-79
2021/07/30 12:06:48;;;;;;;;;;;;;;;19.19;100.00;97536.94;5072325;28;19963;-83
2021/07/30 12:09:17;;;;;;;;;;;;;;;19.13;100.00;97544.66;5056418;28;20019;-84
2021/07/30 12:11:52;;;;;;;;;;;;;;;19.00;100.00;97552.94;5056595;28;20008;-84
2021/07/30 12:14:20;;;;;;;;;;;;;;;18.81;100.00;97548.31;5073083;28;19924;-84
2021/07/30 12:16:48;;;;;;;;;;;;;;;18.72;100.00;97569.13;5037325;28;19955;-84
2021/07/30 12:19:25;;;;;;;;;;;;;;;18.55;100.00;97562.69;5055827;28;19925;-83
2021/07/30 12:21:59;;;;;;;;;;;;;;;18.34;100.00;97561.34;5055771;28;20433;-83
2021/07/30 12:24:27;;;;;;;;;;;;;;;18.01;100.00;97571.81;5058915;28;19932;-82
2021/07/30 12:26:54;;;;;;;;;;;;;;;18.04;100.00;97570.78;5066306;28;20291;-83
2021/07/30 12:29:41;;;;;;;;;;;;;;;17.97;100.00;97574.88;5056838;28;19924;-84
2021/07/30 12:32:11;;;;;;;;;;;;;;;17.78;100.00;97565.31;5055365;28;19925;-84
2021/07/30 12:34:40;;;;;;;;;;;;;;;17.97;100.00;97572.03;5059042;28;19930;-84
2021/07/30 12:37:08;;;;;;;;;;;;;;;18.04;100.00;97562.31;5062180;28;19931;-83
2021/07/30 12:40:01;;;;;;;;;;;;;;;18.25;100.00;97558.00;5055998;28;19924;-84
2021/07/30 12:42:41;;;;;;;;;;;;;;;18.56;100.00;97560.63;5056877;28;20429;-85
2021/07/30 12:45:09;;;;;;;;;;;;;;;18.75;100.00;97556.78;5073558;28;19925;-83
2021/07/30 12:47:39;;;;;;;;;;;;;;;18.54;100.00;97557.56;5039106;28;19932;-89
2021/07/30 12:50:38;;;;;;;;;;;;;;;18.74;100.00;97548.81;5082697;28;19936;-79
2021/07/30 12:53:18;;;;;;;;;;;;;;;19.04;100.00;97561.91;5043221;28;19967;-85